Time;durP1;ratioP1;P1;durP2;ratioP2;P2;SDS_P1;SDS_P2;PMS_P1;PMS_P2;Temp;Humidity;BMP_temperature;BMP_pressure;BME280_temperature;BME280_humidity;BME280_pressure;Samples;Min_cycle;Max_cycle;Signal;HPM_P1;HPM_P2
2023/02/27 11:50:16;;;;;;;18.55;15.73;;;;;;;;;;5090222;27;20305;-72
2023/02/27 11:52:50;;;;;;;14.55;12.55;;;;;;;;;;5084834;28;20546;-72
2023/02/27 11:55:19;;;;;;;15.38;13.30;;;;;;;;;;5072572;28;20024;-68
2023/02/27 11:57:49;;;;;;;17.08;13.95;;;;;;;;;;5074158;28;20432;-73
2023/02/27 12:00:25;;;;;;;19.20;13.98;;;;;;;;;;5032034;28;20060;-84
2023/02/27 12:02:56;;;;;;;16.30;13.75;;;;;;;;;;5032097;28;20036;-85
2023/02/27 12:05:25;;;;;;;17.02;14.10;;;;;;;;;;5081189;28;20039;-74
2023/02/27 12:08:04;;;;;;;28.35;21.42;;;;;;;;;;5069258;28;20074;-74
2023/02/27 12:10:34;;;;;;;20.73;15.30;;;;;;;;;;5071219;28;20124;-76
2023/02/27 12:13:06;;;;;;;18.33;15.18;;;;;;;;;;5089868;28;20024;-68
2023/02/27 12:15:35;;;;;;;21.83;16.38;;;;;;;;;;5088422;28;20420;-69
2023/02/27 12:18:04;;;;;;;19.83;16.40;;;;;;;;;;5089560;28;20481;-70
2023/02/27 12:20:36;;;;;;;38.03;31.55;;;;;;;;;;5070757;28;20063;-70
2023/02/27 12:23:05;;;;;;;16.85;13.85;;;;;;;;;;5089173;28;20032;-69
2023/02/27 12:25:32;;;;;;;18.08;15.25;;;;;;;;;;5059189;28;20018;-68
2023/02/27 12:28:01;;;;;;;18.23;14.82;;;;;;;;;;5051009;28;20075;-70
2023/02/27 12:30:28;;;;;;;21.95;18.52;;;;;;;;;;5048999;28;20026;-66
2023/02/27 12:33:02;;;;;;;30.35;20.35;;;;;;;;;;5052823;28;20029;-72
2023/02/27 12:35:32;;;;;;;20.27;15.98;;;;;;;;;;5051183;28;20079;-71
2023/02/27 12:37:59;;;;;;;19.23;15.30;;;;;;;;;;5031968;28;20087;-74
2023/02/27 12:40:29;;;;;;;22.33;17.65;;;;;;;;;;5049758;28;20486;-73
2023/02/27 12:43:16;;;;;;;24.50;19.00;;;;;;;;;;5049514;28;20040;-69
2023/02/27 12:45:42;;;;;;;23.80;18.73;;;;;;;;;;5048529;28;20108;-68
2023/02/27 12:48:31;;;;;;;30.35;22.52;;;;;;;;;;5048408;28;20131;-72
2023/02/27 12:51:06;;;;;;;22.55;16.73;;;;;;;;;;5031113;28;20091;-71
2023/02/27 12:53:41;;;;;;;24.38;19.02;;;;;;;;;;5048854;28;20600;-74
2023/02/27 12:56:13;;;;;;;20.85;14.98;;;;;;;;;;5031629;28;20430;-73
2023/02/27 12:58:39;;;;;;;28.25;23.23;;;;;;;;;;5030962;28;20033;-77
2023/02/27 13:01:25;;;;;;;24.67;18.88;;;;;;;;;;5028497;28;20029;-73
2023/02/27 13:03:56;;;;;;;25.02;19.13;;;;;;;;;;5045769;28;20471;-75
2023/02/27 13:06:44;;;;;;;43.10;32.63;;;;;;;;;;5015947;28;20053;-73
2023/02/27 13:09:24;;;;;;;27.17;20.25;;;;;;;;;;5037774;28;20077;-72
2023/02/27 13:12:09;;;;;;;29.23;21.65;;;;;;;;;;5032803;28;20036;-74
2023/02/27 13:14:50;;;;;;;28.30;21.08;;;;;;;;;;5049249;28;20037;-73
2023/02/27 13:17:39;;;;;;;27.55;21.83;;;;;;;;;;5042814;28;20501;-76
2023/02/27 13:20:22;;;;;;;31.08;22.98;;;;;;;;;;5046038;28;20558;-78
2023/02/27 13:22:53;;;;;;;34.92;27.70;;;;;;;;;;5033831;28;20123;-74
2023/02/27 13:25:19;;;;;;;32.67;26.90;;;;;;;;;;5059212;28;20033;-73
2023/02/27 13:27:48;;;;;;;38.17;29.90;;;;;;;;;;5058419;28;20036;-78
2023/02/27 13:30:22;;;;;;;34.08;26.42;;;;;;;;;;5061821;28;20043;-90
2023/02/27 13:33:07;;;;;;;26.55;21.52;;;;;;;;;;5036783;28;20030;-82
2023/02/27 13:35:54;;;;;;;24.33;20.25;;;;;;;;;;5037468;28;20029;-87
2023/02/27 13:38:32;;;;;;;30.25;22.13;;;;;;;;;;5042694;28;20072;-78
2023/02/27 13:41:18;;;;;;;22.80;18.40;;;;;;;;;;5053793;28;20051;-79
2023/02/27 13:43:44;;;;;;;23.52;17.75;;;;;;;;;;5055695;28;20495;-75
